Time;durP1;ratioP1;P1;durP2;ratioP2;P2;SDS_P1;SDS_P2;PMS_P1;PMS_P2;Temp;Humidity;BMP_temperature;BMP_pressure;BME280_temperature;BME280_humidity;BME280_pressure;Samples;Min_cycle;Max_cycle;Signal;HPM_P1;HPM_P2
2023/09/19 00:01:12;;;;;;;8.82;1.25;;;14.90;99.90;;;;;;6118668;23;20093;-70
2023/09/19 00:03:38;;;;;;;7.25;1.50;;;14.90;99.90;;;;;;6092533;23;20456;-70
2023/09/19 00:06:07;;;;;;;10.20;1.77;;;14.90;99.90;;;;;;6092124;23;20014;-70
2023/09/19 00:08:33;;;;;;;10.27;2.17;;;14.80;99.90;;;;;;6091534;23;20018;-70
2023/09/19 00:11:05;;;;;;;6.85;1.02;;;14.70;99.90;;;;;;6091147;23;20018;-70
2023/09/19 00:13:32;;;;;;;8.48;1.00;;;14.70;99.90;;;;;;6091026;23;20020;-70
2023/09/19 00:15:58;;;;;;;6.15;1.20;;;14.70;99.90;;;;;;6091477;23;20033;-70
2023/09/19 00:18:28;;;;;;;4.97;0.93;;;14.70;99.90;;;;;;6092460;23;20018;-70
2023/09/19 00:20:57;;;;;;;10.30;1.88;;;14.60;99.90;;;;;;6090960;23;20097;-70
2023/09/19 00:23:24;;;;;;;6.68;1.27;;;14.60;99.90;;;;;;6092284;23;20095;-70
2023/09/19 00:25:50;;;;;;;5.60;1.20;;;14.50;99.90;;;;;;6091624;23;20017;-70
2023/09/19 00:28:17;;;;;;;6.45;1.70;;;14.50;99.90;;;;;;6092140;23;20101;-70
2023/09/19 00:30:43;;;;;;;5.43;1.10;;;14.50;99.90;;;;;;6116527;23;20018;-70
2023/09/19 00:33:11;;;;;;;8.88;1.35;;;14.50;99.90;;;;;;6117723;23;20113;-70
2023/09/19 00:35:37;;;;;;;3.05;0.75;;;14.40;99.90;;;;;;6090321;23;20018;-70
2023/09/19 00:38:03;;;;;;;6.82;1.27;;;14.40;99.90;;;;;;6118166;23;20021;-70
2023/09/19 00:40:30;;;;;;;7.05;1.27;;;14.30;99.90;;;;;;6090798;23;20024;-70
2023/09/19 00:43:00;;;;;;;6.65;1.23;;;14.30;99.90;;;;;;6092029;23;20017;-70
2023/09/19 00:45:28;;;;;;;4.70;0.90;;;14.30;99.90;;;;;;6090894;23;20437;-70
2023/09/19 00:47:53;;;;;;;8.38;1.95;;;14.30;99.90;;;;;;6092512;23;20022;-70
2023/09/19 00:50:23;;;;;;;10.10;1.77;;;14.20;99.90;;;;;;6115252;23;20048;-70
2023/09/19 00:52:50;;;;;;;13.88;1.58;;;14.20;99.90;;;;;;6091734;23;20085;-70
2023/09/19 00:55:19;;;;;;;8.20;1.55;;;14.20;99.90;;;;;;6092460;23;20559;-69
2023/09/19 00:57:45;;;;;;;8.77;1.67;;;14.20;99.90;;;;;;6066693;23;20177;-70
2023/09/19 01:00:15;;;;;;;12.70;2.08;;;14.10;99.90;;;;;;6089936;23;20079;-70
2023/09/19 01:02:45;;;;;;;8.23;1.33;;;14.10;99.90;;;;;;6116685;23;20014;-70
2023/09/19 01:05:12;;;;;;;8.20;1.58;;;14.10;99.90;;;;;;6117153;23;20014;-70
2023/09/19 01:07:41;;;;;;;7.18;1.10;;;14.10;99.90;;;;;;6091390;23;20097;-70
2023/09/19 01:10:10;;;;;;;7.47;1.48;;;14.00;99.90;;;;;;6091919;23;20014;-70
2023/09/19 01:12:57;;;;;;;7.78;1.63;;;14.00;99.90;;;;;;6116699;23;20014;-70
2023/09/19 01:15:29;;;;;;;8.07;1.50;;;14.00;99.90;;;;;;6091406;23;20524;-69
2023/09/19 01:18:00;;;;;;;8.52;2.03;;;14.00;99.90;;;;;;6092629;23;20160;-70
2023/09/19 01:20:33;;;;;;;9.75;2.10;;;14.00;99.90;;;;;;6092150;23;20029;-70
2023/09/19 01:23:10;;;;;;;7.05;1.58;;;14.00;99.90;;;;;;6117273;23;20017;-70
2023/09/19 01:26:11;;;;;;;6.18;1.58;;;14.00;99.90;;;;;;6091740;23;20018;-70
2023/09/19 01:29:06;;;;;;;7.65;1.88;;;14.00;99.90;;;;;;6067429;23;20072;-69
2023/09/19 01:31:37;;;;;;;4.95;1.45;;;14.00;99.90;;;;;;6091536;23;20089;-70
2023/09/19 01:34:07;;;;;;;7.10;1.27;;;14.00;99.90;;;;;;6090383;23;20732;-69
2023/09/19 01:36:38;;;;;;;8.77;1.95;;;14.00;99.90;;;;;;6091876;23;20083;-70
2023/09/19 01:39:10;;;;;;;6.93;1.45;;;13.90;99.90;;;;;;6091360;23;20024;-69
2023/09/19 01:41:41;;;;;;;6.40;1.60;;;13.90;99.90;;;;;;6118344;23;20588;-69
2023/09/19 01:44:11;;;;;;;8.65;1.42;;;13.90;99.90;;;;;;6091283;23;20029;-70
2023/09/19 01:46:41;;;;;;;9.05;1.38;;;13.90;99.90;;;;;;6068083;23;20014;-70
2023/09/19 01:49:10;;;;;;;9.50;1.90;;;13.90;99.90;;;;;;6091346;23;20026;-69
2023/09/19 01:52:00;;;;;;;7.97;2.03;;;13.90;99.90;;;;;;6092012;23;20029;-70
2023/09/19 01:54:43;;;;;;;7.50;1.58;;;13.80;99.90;;;;;;6091543;23;20495;-69
2023/09/19 01:57:38;;;;;;;11.35;1.60;;;13.80;99.90;;;;;;6091848;23;20077;-69
2023/09/19 02:00:08;;;;;;;8.25;1.63;;;13.80;99.90;;;;;;6091407;23;20018;-69
2023/09/19 02:02:37;;;;;;;4.90;1.08;;;13.80;99.90;;;;;;6091233;23;20053;-70
2023/09/19 02:05:04;;;;;;;6.25;1.40;;;13.80;99.90;;;;;;6091498;23;20018;-69
2023/09/19 02:07:31;;;;;;;7.18;1.33;;;13.70;99.90;;;;;;6090745;23;20018;-70
2023/09/19 02:10:00;;;;;;;6.38;1.50;;;13.70;99.90;;;;;;6118241;23;20041;-69
2023/09/19 02:12:26;;;;;;;6.82;1.73;;;13.70;99.90;;;;;;6093001;23;20076;-69
2023/09/19 02:14:51;;;;;;;6.38;1.83;;;13.60;99.90;;;;;;6092274;23;20018;-69
2023/09/19 02:17:17;;;;;;;10.00;1.63;;;13.60;99.90;;;;;;6093134;23;20029;-69
2023/09/19 02:19:42;;;;;;;8.05;1.67;;;13.60;99.90;;;;;;6091960;23;20018;-69
2023/09/19 02:22:10;;;;;;;10.50;1.50;;;13.60;99.90;;;;;;6118431;23;20014;-69
2023/09/19 02:24:36;;;;;;;11.15;2.40;;;13.60;99.90;;;;;;6119753;23;20349;-69
2023/09/19 02:27:07;;;;;;;7.80;1.52;;;13.60;99.90;;;;;;6092990;23;20014;-70
2023/09/19 02:29:34;;;;;;;8.63;1.55;;;13.50;99.90;;;;;;6117941;23;20045;-69
2023/09/19 02:32:02;;;;;;;8.85;1.65;;;13.60;99.90;;;;;;6091999;23;20021;-69
2023/09/19 02:34:28;;;;;;;6.97;1.63;;;13.60;99.90;;;;;;6090742;23;20018;-69
2023/09/19 02:36:55;;;;;;;7.82;1.42;;;13.60;99.90;;;;;;6091287;23;20022;-69
2023/09/19 02:39:21;;;;;;;7.50;2.35;;;13.60;99.90;;;;;;6092230;23;20071;-69
2023/09/19 02:41:47;;;;;;;6.38;1.73;;;13.50;99.90;;;;;;6091320;23;20018;-69
2023/09/19 02:44:12;;;;;;;8.38;2.00;;;13.50;99.90;;;;;;6091086;23;20030;-70
2023/09/19 02:46:38;;;;;;;6.65;1.67;;;13.50;99.90;;;;;;6091630;23;20026;-69
2023/09/19 02:49:06;;;;;;;7.68;2.15;;;13.50;99.90;;;;;;6117370;23;20026;-69
2023/09/19 02:51:32;;;;;;;5.97;1.55;;;13.60;99.90;;;;;;6092659;23;20014;-69
2023/09/19 02:54:03;;;;;;;12.20;2.03;;;13.40;99.90;;;;;;6118576;23;20093;-69
2023/09/19 02:56:29;;;;;;;9.25;1.73;;;13.40;99.90;;;;;;6117739;23;20092;-70
2023/09/19 02:58:55;;;;;;;9.95;2.20;;;13.40;99.90;;;;;;6092413;23;20464;-69
2023/09/19 03:01:22;;;;;;;10.23;1.60;;;13.40;99.90;;;;;;6090937;23;20045;-69
2023/09/19 03:03:47;;;;;;;6.22;1.23;;;13.40;99.90;;;;;;6092244;23;20022;-69
2023/09/19 03:06:13;;;;;;;4.70;1.40;;;13.40;99.90;;;;;;6092415;23;20029;-69
2023/09/19 03:08:39;;;;;;;6.53;1.85;;;13.40;99.90;;;;;;6092542;23;20021;-69
2023/09/19 03:11:05;;;;;;;7.28;1.50;;;13.50;99.90;;;;;;6117851;23;20018;-69
2023/09/19 03:13:32;;;;;;;9.32;1.95;;;13.50;99.90;;;;;;6092850;23;20018;-69
2023/09/19 03:15:58;;;;;;;8.48;2.05;;;13.50;99.90;;;;;;6091001;23;20027;-69
2023/09/19 03:18:26;;;;;;;7.07;1.88;;;13.50;99.90;;;;;;6093308;23;20021;-69
2023/09/19 03:20:56;;;;;;;11.38;1.58;;;13.50;99.90;;;;;;6090061;23;20061;-69
2023/09/19 03:23:22;;;;;;;8.10;1.88;;;13.50;99.90;;;;;;6093247;23;20403;-69
2023/09/19 03:25:48;;;;;;;9.82;1.35;;;13.50;99.90;;;;;;6091035;23;20089;-70
2023/09/19 03:28:15;;;;;;;8.23;1.50;;;13.50;99.90;;;;;;6092662;23;20381;-69
2023/09/19 03:30:41;;;;;;;8.82;1.70;;;13.50;99.90;;;;;;6089990;23;20025;-70
2023/09/19 03:33:08;;;;;;;11.50;1.85;;;13.50;99.90;;;;;;6092147;23;20010;-69
2023/09/19 03:35:34;;;;;;;8.20;1.85;;;13.60;99.90;;;;;;6117029;23;20071;-69
2023/09/19 03:38:00;;;;;;;7.47;1.23;;;13.60;99.90;;;;;;6092458;23;20018;-69
2023/09/19 03:40:26;;;;;;;9.02;1.73;;;13.60;99.90;;;;;;6118269;23;20025;-69
2023/09/19 03:42:51;;;;;;;6.68;1.50;;;13.60;99.90;;;;;;6092606;23;20109;-69
2023/09/19 03:45:18;;;;;;;11.07;1.38;;;13.60;99.90;;;;;;6090544;23;20457;-70
2023/09/19 03:47:46;;;;;;;7.28;2.28;;;13.60;99.90;;;;;;6091573;23;20089;-70
2023/09/19 03:50:15;;;;;;;7.95;1.38;;;13.60;99.90;;;;;;6092076;23;20018;-69
2023/09/19 03:52:40;;;;;;;7.68;1.88;;;13.60;99.90;;;;;;6118374;23;20014;-69
2023/09/19 03:55:06;;;;;;;5.50;1.17;;;13.50;99.90;;;;;;6092596;23;20345;-69
2023/09/19 03:57:32;;;;;;;12.10;2.33;;;13.50;99.90;;;;;;6092588;23;20037;-69
2023/09/19 03:59:58;;;;;;;5.97;1.02;;;13.60;99.90;;;;;;6117674;23;20416;-69
2023/09/19 04:02:24;;;;;;;9.70;1.52;;;13.50;99.90;;;;;;6091583;23;20021;-70
2023/09/19 04:04:53;;;;;;;8.25;1.20;;;13.50;99.90;;;;;;6119326;23;20407;-70
2023/09/19 04:07:19;;;;;;;10.82;1.83;;;13.50;99.90;;;;;;6117589;23;20040;-70
2023/09/19 04:09:45;;;;;;;7.30;2.00;;;13.60;99.90;;;;;;6091442;23;20032;-69
2023/09/19 04:12:11;;;;;;;8.30;1.60;;;13.60;99.90;;;;;;6092623;23;20045;-69
2023/09/19 04:14:38;;;;;;;7.20;1.48;;;13.60;99.90;;;;;;6092440;23;20010;-69
2023/09/19 04:17:05;;;;;;;4.63;1.02;;;13.60;99.90;;;;;;6091379;23;20025;-69
2023/09/19 04:19:31;;;;;;;4.93;1.35;;;13.60;99.90;;;;;;6088117;23;20022;-69
2023/09/19 04:21:56;;;;;;;9.00;2.13;;;13.60;99.90;;;;;;6115334;23;20067;-69
2023/09/19 04:24:22;;;;;;;3.88;0.93;;;13.70;99.90;;;;;;6116905;23;20014;-69
2023/09/19 04:26:48;;;;;;;11.10;1.00;;;13.70;99.90;;;;;;6089586;23;20095;-69
2023/09/19 04:29:14;;;;;;;6.70;1.50;;;13.70;99.90;;;;;;6088053;23;20041;-69
2023/09/19 04:31:40;;;;;;;18.30;2.58;;;13.70;99.90;;;;;;6090876;23;20045;-69
2023/09/19 04:34:06;;;;;;;5.53;1.02;;;13.80;99.90;;;;;;6116607;23;20341;-69
2023/09/19 04:36:32;;;;;;;10.07;1.80;;;13.80;99.90;;;;;;6090491;23;20083;-69
2023/09/19 04:38:59;;;;;;;7.60;1.20;;;13.80;99.90;;;;;;6089672;23;20783;-69
2023/09/19 04:41:24;;;;;;;10.82;1.73;;;13.90;99.90;;;;;;6092087;23;20561;-69
2023/09/19 04:43:51;;;;;;;8.38;1.70;;;13.90;99.90;;;;;;6089190;23;20141;-69
2023/09/19 04:46:17;;;;;;;8.20;2.33;;;13.90;99.90;;;;;;6089605;23;20061;-70
2023/09/19 04:48:43;;;;;;;7.07;1.65;;;13.90;99.90;;;;;;6091069;23;20037;-70
2023/09/19 04:51:10;;;;;;;7.75;1.55;;;14.00;99.90;;;;;;6091351;23;20322;-70
2023/09/19 04:53:39;;;;;;;8.90;1.45;;;14.00;99.90;;;;;;6094181;23;20444;-70
2023/09/19 04:56:06;;;;;;;10.15;1.98;;;14.00;99.90;;;;;;6115697;23;20022;-69
2023/09/19 04:58:32;;;;;;;7.07;1.65;;;14.00;99.90;;;;;;6090649;23;20044;-69
2023/09/19 05:00:57;;;;;;;5.93;1.48;;;14.20;99.90;;;;;;6092114;23;20449;-69
2023/09/19 05:03:23;;;;;;;7.90;2.00;;;13.90;99.90;;;;;;6092091;23;20030;-69
2023/09/19 05:05:48;;;;;;;8.55;1.73;;;14.00;99.90;;;;;;6092786;23;20029;-69
2023/09/19 05:08:14;;;;;;;7.53;1.75;;;13.90;99.90;;;;;;6092605;23;20061;-69
2023/09/19 05:10:40;;;;;;;6.10;1.63;;;13.90;99.90;;;;;;6117212;23;20066;-70
2023/09/19 05:13:07;;;;;;;10.70;1.98;;;13.90;99.90;;;;;;6091111;23;20093;-69
2023/09/19 05:15:33;;;;;;;11.18;2.28;;;13.90;99.90;;;;;;6091545;23;20097;-70
2023/09/19 05:17:59;;;;;;;9.15;1.58;;;13.90;99.90;;;;;;6093106;23;20127;-70
2023/09/19 05:20:33;;;;;;;9.20;2.17;;;13.90;99.90;;;;;;6092237;23;20020;-69
2023/09/19 05:23:05;;;;;;;7.60;1.73;;;13.90;99.90;;;;;;6092763;23;20022;-69
2023/09/19 05:25:38;;;;;;;6.47;2.05;;;13.90;99.90;;;;;;6117903;23;20040;-70
2023/09/19 05:28:11;;;;;;;10.48;1.98;;;13.90;99.90;;;;;;6092030;23;20452;-70
2023/09/19 05:30:40;;;;;;;15.10;1.65;;;13.90;99.90;;;;;;6091243;23;20014;-69
2023/09/19 05:33:07;;;;;;;10.43;2.10;;;13.90;99.90;;;;;;6118171;23;20054;-69
2023/09/19 05:35:33;;;;;;;9.10;1.92;;;13.90;99.90;;;;;;6116118;23;20028;-70
2023/09/19 05:37:59;;;;;;;12.23;2.28;;;13.80;99.90;;;;;;6089703;23;20615;-70
2023/09/19 05:40:25;;;;;;;11.45;1.83;;;13.80;99.90;;;;;;6116524;23;20425;-69
2023/09/19 05:42:51;;;;;;;9.55;2.70;;;13.80;99.90;;;;;;6090220;23;20115;-69
2023/09/19 05:45:27;;;;;;;6.25;1.63;;;13.80;99.90;;;;;;6091484;23;20104;-69
2023/09/19 05:48:04;;;;;;;11.40;1.85;;;13.80;99.90;;;;;;6092355;23;20466;-70
2023/09/19 05:50:29;;;;;;;7.78;1.30;;;13.80;99.90;;;;;;6117152;23;20020;-70
2023/09/19 05:52:55;;;;;;;13.90;2.65;;;13.80;99.90;;;;;;6092295;23;20026;-70
2023/09/19 05:55:24;;;;;;;14.73;1.70;;;13.80;99.90;;;;;;6091708;23;20018;-70
2023/09/19 05:57:51;;;;;;;10.43;1.70;;;13.70;99.90;;;;;;6090409;23;20018;-70
2023/09/19 06:00:18;;;;;;;11.07;1.95;;;13.80;99.90;;;;;;6089565;23;20460;-70
2023/09/19 06:02:44;;;;;;;10.07;1.70;;;13.80;99.90;;;;;;6091108;23;20048;-70
2023/09/19 06:05:10;;;;;;;14.00;2.03;;;13.80;99.90;;;;;;6091255;23;20018;-70
2023/09/19 06:07:37;;;;;;;10.45;2.03;;;13.90;99.90;;;;;;6115478;23;20026;-69
2023/09/19 06:10:05;;;;;;;8.40;1.70;;;14.00;99.90;;;;;;6115449;23;20018;-70
2023/09/19 06:12:33;;;;;;;6.88;1.60;;;14.10;99.90;;;;;;6115297;23;20520;-70
2023/09/19 06:14:59;;;;;;;9.48;1.95;;;14.40;99.90;;;;;;6115288;23;20459;-72
2023/09/19 06:17:26;;;;;;;11.35;1.85;;;14.50;99.90;;;;;;6089491;23;20018;-70
2023/09/19 06:19:52;;;;;;;7.22;1.40;;;14.80;99.90;;;;;;6114265;23;20090;-69
2023/09/19 06:22:18;;;;;;;7.55;1.48;;;15.40;99.90;;;;;;6088314;23;20465;-70
2023/09/19 06:24:44;;;;;;;6.85;1.92;;;16.30;99.90;;;;;;6089189;23;20561;-70
2023/09/19 06:27:10;;;;;;;4.40;1.80;;;17.20;99.90;;;;;;6114269;23;20021;-70
2023/09/19 06:29:37;;;;;;;8.18;2.08;;;18.00;99.90;;;;;;6088514;23;20026;-69
2023/09/19 06:32:10;;;;;;;7.55;1.92;;;18.40;99.90;;;;;;6091065;23;20046;-69
2023/09/19 06:34:36;;;;;;;9.23;2.08;;;18.60;99.90;;;;;;6091246;23;20106;-70
2023/09/19 06:37:03;;;;;;;7.32;2.80;;;18.30;99.90;;;;;;6117670;23;20325;-69
2023/09/19 06:39:28;;;;;;;8.73;2.20;;;18.00;99.90;;;;;;6116558;23;20018;-70
2023/09/19 06:41:54;;;;;;;8.88;1.83;;;17.40;99.90;;;;;;6115063;23;20014;-70
2023/09/19 06:44:24;;;;;;;8.45;1.67;;;16.90;99.90;;;;;;6091828;23;20018;-70
2023/09/19 06:46:51;;;;;;;5.68;2.22;;;16.50;99.90;;;;;;6090581;23;20028;-70
2023/09/19 06:49:17;;;;;;;7.78;2.00;;;16.30;99.90;;;;;;6116275;23;20025;-70
2023/09/19 06:51:43;;;;;;;10.60;2.33;;;16.10;99.90;;;;;;6115364;23;20014;-69
2023/09/19 06:54:09;;;;;;;9.35;1.95;;;15.80;99.90;;;;;;6091356;23;20009;-70
2023/09/19 06:56:35;;;;;;;9.95;2.05;;;15.60;99.90;;;;;;6091826;23;20022;-70
2023/09/19 06:59:02;;;;;;;8.50;1.95;;;15.50;99.90;;;;;;6119408;23;20048;-70
2023/09/19 07:01:28;;;;;;;8.60;2.67;;;15.50;99.90;;;;;;6117625;23;20010;-70
2023/09/19 07:03:54;;;;;;;8.40;1.90;;;15.50;99.90;;;;;;6118657;23;20045;-70
2023/09/19 07:06:20;;;;;;;12.10;2.30;;;15.60;99.90;;;;;;6092550;23;20025;-69
2023/09/19 07:08:46;;;;;;;10.07;2.20;;;15.70;99.90;;;;;;6116827;23;20026;-70
2023/09/19 07:11:15;;;;;;;11.15;1.85;;;15.80;99.90;;;;;;6092099;23;20047;-70
2023/09/19 07:13:41;;;;;;;7.15;1.60;;;15.90;99.90;;;;;;6117883;23;20389;-70
2023/09/19 07:16:08;;;;;;;9.93;1.98;;;15.90;99.90;;;;;;6090686;23;20029;-70
2023/09/19 07:18:34;;;;;;;7.88;1.70;;;15.80;99.90;;;;;;6091938;23;20022;-70
2023/09/19 07:21:04;;;;;;;10.15;2.90;;;15.70;99.90;;;;;;6092173;23;20044;-70
2023/09/19 07:23:33;;;;;;;8.02;1.88;;;15.70;99.90;;;;;;6119868;23;20034;-70
2023/09/19 07:26:05;;;;;;;7.70;2.28;;;15.60;99.90;;;;;;6093268;23;20079;-69
2023/09/19 07:28:30;;;;;;;8.38;1.48;;;15.60;99.90;;;;;;6093476;23;20753;-70
2023/09/19 07:30:57;;;;;;;11.90;2.10;;;15.50;99.90;;;;;;6091803;23;20026;-70
2023/09/19 07:33:24;;;;;;;10.57;3.28;;;15.50;99.90;;;;;;6120370;23;20144;-70
2023/09/19 07:35:50;;;;;;;6.55;1.58;;;15.40;99.90;;;;;;6118417;23;20274;-70
2023/09/19 07:38:17;;;;;;;7.43;1.60;;;15.40;99.90;;;;;;6093205;23;20029;-70
2023/09/19 07:40:43;;;;;;;10.20;1.70;;;15.40;99.90;;;;;;6090111;23;20024;-70
2023/09/19 07:43:09;;;;;;;11.80;2.03;;;15.20;99.90;;;;;;6093587;23;20029;-70
2023/09/19 07:45:36;;;;;;;8.95;1.90;;;15.10;99.90;;;;;;6091975;23;20014;-70
2023/09/19 07:48:06;;;;;;;7.68;1.80;;;15.10;99.90;;;;;;6093026;23;20469;-70
2023/09/19 07:50:36;;;;;;;10.50;1.88;;;15.10;99.90;;;;;;6091782;23;20413;-70
2023/09/19 07:53:04;;;;;;;7.88;1.83;;;15.10;99.90;;;;;;6092423;23;20014;-69
2023/09/19 07:55:30;;;;;;;8.65;2.00;;;15.20;99.90;;;;;;6092865;23;20014;-70
2023/09/19 07:57:57;;;;;;;11.77;2.25;;;15.30;99.90;;;;;;6089232;23;20021;-70
2023/09/19 08:00:22;;;;;;;8.23;2.17;;;15.40;99.90;;;;;;6091141;23;20063;-70
2023/09/19 08:02:48;;;;;;;8.48;2.00;;;15.50;99.90;;;;;;6119158;23;20465;-70
2023/09/19 08:05:18;;;;;;;7.00;2.08;;;15.60;99.90;;;;;;6092820;23;20026;-69
2023/09/19 08:07:56;;;;;;;10.30;1.65;;;15.70;99.90;;;;;;6118249;23;20018;-70
2023/09/19 08:10:21;;;;;;;6.85;2.03;;;15.70;99.90;;;;;;6092326;23;20349;-70
2023/09/19 08:12:48;;;;;;;9.95;1.95;;;15.60;99.90;;;;;;6091467;23;20018;-70
2023/09/19 08:15:15;;;;;;;7.68;2.25;;;15.70;99.90;;;;;;6118806;23;20010;-70
2023/09/19 08:17:41;;;;;;;9.02;1.80;;;15.70;99.90;;;;;;6093275;23;20014;-70
2023/09/19 08:20:15;;;;;;;10.63;2.35;;;15.80;99.90;;;;;;6117173;23;20041;-70
2023/09/19 08:22:44;;;;;;;7.55;2.50;;;15.90;99.90;;;;;;6091336;23;20341;-70
2023/09/19 08:25:09;;;;;;;8.55;2.20;;;15.90;99.90;;;;;;6092373;23;20091;-70
2023/09/19 08:27:36;;;;;;;9.80;1.85;;;16.00;99.90;;;;;;6116858;23;20061;-70
2023/09/19 08:30:02;;;;;;;12.57;2.60;;;16.10;99.90;;;;;;6091649;23;20018;-70
2023/09/19 08:32:29;;;;;;;9.30;2.10;;;16.10;99.90;;;;;;6117793;23;20320;-70
2023/09/19 08:34:54;;;;;;;11.55;2.83;;;16.20;99.90;;;;;;6118847;23;20318;-70
2023/09/19 08:37:20;;;;;;;16.13;2.20;;;16.30;99.90;;;;;;6091932;23;20048;-70
2023/09/19 08:39:46;;;;;;;9.02;2.13;;;16.30;99.90;;;;;;6118390;23;20321;-70
2023/09/19 08:42:12;;;;;;;8.45;2.13;;;16.30;99.90;;;;;;6091749;23;20018;-70
2023/09/19 08:44:40;;;;;;;13.30;2.25;;;16.30;99.90;;;;;;6090399;23;20052;-70
2023/09/19 08:47:13;;;;;;;12.63;2.03;;;16.40;99.90;;;;;;6116751;23;20060;-70
2023/09/19 08:49:58;;;;;;;11.20;2.97;;;16.50;99.90;;;;;;6087907;23;20022;-70
2023/09/19 08:52:27;;;;;;;9.60;2.15;;;16.60;99.90;;;;;;6089349;23;20133;-70
2023/09/19 08:54:58;;;;;;;8.32;1.77;;;16.70;99.90;;;;;;6089498;23;20020;-70
2023/09/19 08:57:29;;;;;;;10.40;2.53;;;16.70;99.90;;;;;;6086824;23;20029;-70
2023/09/19 08:59:56;;;;;;;12.93;2.47;;;16.70;99.90;;;;;;6117445;23;20018;-70
2023/09/19 09:02:23;;;;;;;12.43;2.83;;;16.70;99.90;;;;;;6113653;23;20022;-70
2023/09/19 09:04:50;;;;;;;14.30;2.97;;;16.80;99.90;;;;;;6089075;23;20025;-70
2023/09/19 09:07:18;;;;;;;9.48;2.53;;;16.90;99.90;;;;;;6087387;23;20477;-70
2023/09/19 09:09:45;;;;;;;8.15;2.00;;;16.90;99.90;;;;;;6090052;23;20029;-69
2023/09/19 09:12:15;;;;;;;11.18;2.35;;;17.00;99.90;;;;;;6117589;23;20306;-70
2023/09/19 09:14:44;;;;;;;10.18;1.90;;;17.20;99.90;;;;;;6092517;23;20009;-69
2023/09/19 09:17:11;;;;;;;9.82;2.38;;;17.40;99.90;;;;;;6091854;23;20064;-70
2023/09/19 09:19:38;;;;;;;11.02;2.47;;;17.50;99.90;;;;;;6091080;23;20088;-70
2023/09/19 09:22:08;;;;;;;8.32;2.22;;;17.50;99.90;;;;;;6116186;23;20017;-70
2023/09/19 09:24:33;;;;;;;11.15;2.92;;;17.90;99.90;;;;;;6093001;23;20085;-70
2023/09/19 09:27:00;;;;;;;10.10;2.15;;;17.80;99.90;;;;;;6090934;23;20052;-70
2023/09/19 09:29:47;;;;;;;10.70;2.30;;;17.80;99.90;;;;;;6091416;23;20052;-70
2023/09/19 09:32:20;;;;;;;9.15;2.72;;;17.90;99.90;;;;;;6091678;23;20014;-70
2023/09/19 09:34:51;;;;;;;12.23;2.38;;;18.00;99.90;;;;;;6092141;23;20029;-70
2023/09/19 09:37:20;;;;;;;7.80;1.70;;;17.90;99.90;;;;;;6091432;23;20018;-69
2023/09/19 09:39:58;;;;;;;8.60;2.10;;;17.90;99.90;;;;;;6092052;23;20110;-70
2023/09/19 09:42:38;;;;;;;11.38;3.03;;;18.00;99.90;;;;;;6117489;23;20345;-70
2023/09/19 09:48:03;;;;;;;17.75;4.43;;;18.20;99.90;;;;;;6117376;23;20065;-70
2023/09/19 09:51:18;;;;;;;18.67;4.20;;;18.30;99.90;;;;;;6090755;23;20025;-71
2023/09/19 09:53:32;;;;;;;9.90;1.67;;;18.30;99.90;;;;;;6092801;23;20018;-71
2023/09/19 09:56:00;;;;;;;15.07;2.77;;;18.30;99.90;;;;;;6092442;23;20404;-71
2023/09/19 09:58:29;;;;;;;12.48;2.33;;;18.30;99.90;;;;;;6091779;23;20068;-71
2023/09/19 10:01:17;;;;;;;12.63;2.67;;;18.40;99.90;;;;;;6090488;23;20445;-71
2023/09/19 10:03:47;;;;;;;11.55;3.58;;;18.40;99.90;;;;;;6118839;23;20120;-71
2023/09/19 10:09:13;;;;;;;13.25;3.28;;;18.50;99.90;;;;;;6091218;23;20025;-71
2023/09/19 10:11:44;;;;;;;8.85;2.55;;;18.60;99.90;;;;;;6117193;23;20016;-71
2023/09/19 10:14:12;;;;;;;8.43;2.00;;;18.70;99.90;;;;;;6091840;23;20014;-71
2023/09/19 10:16:46;;;;;;;8.73;2.10;;;18.80;99.90;;;;;;6117317;23;20092;-71
2023/09/19 10:19:30;;;;;;;7.95;1.83;;;18.90;99.90;;;;;;6090761;23;20022;-71
2023/09/19 10:21:56;;;;;;;10.18;2.90;;;18.80;99.90;;;;;;6092390;23;20030;-71
2023/09/19 10:24:24;;;;;;;11.88;2.67;;;18.80;99.90;;;;;;6091730;23;20045;-71
2023/09/19 10:26:51;;;;;;;14.95;3.00;;;18.80;99.90;;;;;;6116695;23;20087;-71
2023/09/19 10:29:18;;;;;;;16.27;3.00;;;18.90;99.90;;;;;;6091422;23;20021;-71
2023/09/19 10:31:47;;;;;;;7.68;2.08;;;19.00;99.90;;;;;;6093456;23;20097;-71
2023/09/19 10:34:15;;;;;;;17.35;2.67;;;19.00;99.90;;;;;;6118907;23;20064;-71
2023/09/19 10:36:44;;;;;;;8.27;2.47;;;18.90;99.90;;;;;;6118395;23;20052;-71
2023/09/19 10:39:13;;;;;;;11.93;2.75;;;18.70;99.90;;;;;;6092681;23;20018;-71
2023/09/19 10:41:39;;;;;;;9.27;2.47;;;18.60;99.90;;;;;;6117564;23;20089;-71
2023/09/19 10:44:05;;;;;;;11.63;2.33;;;18.50;99.90;;;;;;6119134;23;20013;-71
2023/09/19 10:46:34;;;;;;;11.35;2.90;;;18.60;99.90;;;;;;6119183;23;20139;-71
2023/09/19 10:49:01;;;;;;;11.45;3.05;;;18.70;99.90;;;;;;6118554;23;20010;-71
2023/09/19 10:51:31;;;;;;;13.95;2.65;;;18.80;99.90;;;;;;6091206;23;20014;-71
2023/09/19 10:54:13;;;;;;;11.85;2.92;;;18.90;99.90;;;;;;6093476;23;20653;-71
2023/09/19 10:56:46;;;;;;;11.00;2.35;;;19.00;99.90;;;;;;6092445;23;20421;-71
2023/09/19 10:59:18;;;;;;;15.90;3.10;;;18.80;99.90;;;;;;6118313;23;20329;-71
2023/09/19 11:01:56;;;;;;;8.90;1.95;;;18.90;99.90;;;;;;6092438;23;20017;-71
2023/09/19 11:04:26;;;;;;;14.95;3.63;;;18.90;99.90;;;;;;6093468;23;20045;-71
2023/09/19 11:07:15;;;;;;;11.45;2.15;;;18.80;99.90;;;;;;6091478;23;20022;-71
2023/09/19 11:09:53;;;;;;;9.30;2.53;;;18.70;99.90;;;;;;6116367;23;20020;-71
2023/09/19 11:12:31;;;;;;;14.10;2.80;;;18.70;99.90;;;;;;6091687;23;20028;-72
2023/09/19 11:14:58;;;;;;;10.52;2.25;;;18.60;99.90;;;;;;6092148;23;20786;-71
2023/09/19 11:17:46;;;;;;;12.98;3.10;;;18.60;99.90;;;;;;6091151;23;20097;-71
2023/09/19 11:22:51;;;;;;;7.88;2.10;;;18.70;99.90;;;;;;6092829;23;20084;-71
2023/09/19 11:25:29;;;;;;;11.30;2.45;;;18.80;99.90;;;;;;6092913;23;20022;-71
2023/09/19 11:30:37;;;;;;;20.77;4.18;;;19.00;99.90;;;;;;6090886;23;20882;-71
2023/09/19 11:33:38;;;;;;;11.48;3.13;;;19.00;99.90;;;;;;6118755;23;20037;-71
2023/09/19 11:36:18;;;;;;;12.52;2.80;;;19.10;99.90;;;;;;6118492;23;20022;-71
2023/09/19 11:38:50;;;;;;;12.23;2.70;;;19.10;99.90;;;;;;6091697;23;20026;-71
2023/09/19 11:41:31;;;;;;;16.52;2.65;;;19.10;99.90;;;;;;6092148;23;20097;-71
2023/09/19 11:44:05;;;;;;;12.32;3.22;;;19.00;99.90;;;;;;6093369;23;20049;-71
2023/09/19 11:46:33;;;;;;;12.02;2.85;;;18.90;99.90;;;;;;6092368;23;20044;-71
2023/09/19 11:49:13;;;;;;;12.80;2.10;;;18.90;99.90;;;;;;6092216;23;20053;-71
2023/09/19 11:51:44;;;;;;;9.48;1.90;;;18.90;99.90;;;;;;6091153;23;20076;-71
2023/09/19 11:54:17;;;;;;;9.07;2.55;;;18.80;99.90;;;;;;6120022;23;20010;-70
2023/09/19 11:56:44;;;;;;;13.98;3.20;;;18.70;99.90;;;;;;6092868;23;20120;-71
2023/09/19 11:59:10;;;;;;;9.23;2.05;;;18.70;99.90;;;;;;6091430;23;20029;-70
2023/09/19 12:01:43;;;;;;;8.75;2.58;;;18.60;99.90;;;;;;6091755;23;20018;-71
2023/09/19 12:04:11;;;;;;;8.20;2.22;;;18.60;99.90;;;;;;6120092;23;20077;-71
2023/09/19 12:06:44;;;;;;;13.43;2.22;;;18.60;99.90;;;;;;6069253;23;20060;-71
2023/09/19 12:09:16;;;;;;;9.27;2.05;;;18.60;99.90;;;;;;6092857;23;20085;-71
2023/09/19 12:11:44;;;;;;;10.25;1.73;;;18.50;99.90;;;;;;6092915;23;20022;-71
2023/09/19 12:14:10;;;;;;;10.20;1.77;;;18.50;99.90;;;;;;6093420;23;20064;-70
2023/09/19 12:16:36;;;;;;;6.05;1.65;;;18.30;99.90;;;;;;6091758;23;20017;-70
2023/09/19 12:19:22;;;;;;;8.85;1.48;;;18.20;99.90;;;;;;6091236;23;20463;-70
2023/09/19 12:22:05;;;;;;;8.50;1.90;;;18.20;99.90;;;;;;6091589;23;20022;-70
2023/09/19 12:24:31;;;;;;;8.68;1.92;;;18.20;99.90;;;;;;6092346;23;20022;-71
2023/09/19 12:27:05;;;;;;;11.05;1.48;;;18.20;99.90;;;;;;6115173;23;20373;-71
2023/09/19 12:29:34;;;;;;;9.02;1.63;;;18.10;99.90;;;;;;6091284;23;20053;-71
2023/09/19 12:32:03;;;;;;;8.60;1.45;;;18.20;99.90;;;;;;6118205;23;20092;-71
2023/09/19 12:34:34;;;;;;;12.52;1.77;;;18.20;99.90;;;;;;6092436;23;20022;-72
2023/09/19 12:37:12;;;;;;;7.13;1.67;;;18.30;99.90;;;;;;6068407;23;20433;-71
2023/09/19 12:39:48;;;;;;;7.40;1.67;;;18.40;99.90;;;;;;6090236;23;20056;-71
2023/09/19 12:42:15;;;;;;;8.30;2.28;;;18.40;99.90;;;;;;6092493;23;20022;-71
2023/09/19 12:44:46;;;;;;;10.55;1.67;;;18.50;99.90;;;;;;6093463;23;20031;-70
2023/09/19 12:47:17;;;;;;;9.00;1.70;;;18.50;99.90;;;;;;6092637;23;20022;-76
2023/09/19 12:50:25;;;;;;;7.85;1.55;;;18.50;99.90;;;;;;6089595;23;20018;-76
2023/09/19 12:52:51;;;;;;;8.25;1.67;;;18.40;99.90;;;;;;6093765;23;20017;-75
2023/09/19 12:55:24;;;;;;;7.95;1.23;;;18.40;99.90;;;;;;6196794;23;20022;-74
2023/09/19 12:58:12;;;;;;;5.57;1.30;;;18.30;99.90;;;;;;6090398;23;20556;-74
2023/09/19 13:00:44;;;;;;;8.52;1.35;;;18.30;99.90;;;;;;6116309;23;20010;-75
2023/09/19 13:03:35;;;;;;;6.35;1.92;;;18.30;99.90;;;;;;6092053;23;20014;-75
2023/09/19 13:06:04;;;;;;;8.50;1.80;;;18.30;99.90;;;;;;6090101;23;20026;-75